sensor_id;sensor_type;location;lat;lon;timestamp;pressure;altitude;pressure_sealevel;temperature;humidity
22580;BME280;11456;47.030;15.396;2023-04-06T00:01:54;97791.78;;;0.29;56.38
22580;BME280;11456;47.030;15.396;2023-04-06T00:04:20;97791.19;;;0.24;56.19
22580;BME280;11456;47.030;15.396;2023-04-06T00:06:47;97785.13;;;0.22;56.35
22580;BME280;11456;47.030;15.396;2023-04-06T00:09:14;97788.28;;;0.28;56.61
22580;BME280;11456;47.030;15.396;2023-04-06T00:11:40;97787.00;;;0.20;56.28
22580;BME280;11456;47.030;15.396;2023-04-06T00:14:07;97784.34;;;0.20;56.92
22580;BME280;11456;47.030;15.396;2023-04-06T00:16:33;97774.09;;;0.14;56.71
22580;BME280;11456;47.030;15.396;2023-04-06T00:19:01;97770.34;;;-0.14;57.54
22580;BME280;11456;47.030;15.396;2023-04-06T00:21:27;97772.41;;;-0.03;58.20
22580;BME280;11456;47.030;15.396;2023-04-06T00:23:54;97774.88;;;0.16;57.08
22580;BME280;11456;47.030;15.396;2023-04-06T00:26:20;97767.78;;;0.00;57.55
22580;BME280;11456;47.030;15.396;2023-04-06T00:28:48;97763.09;;;0.06;56.92
22580;BME280;11456;47.030;15.396;2023-04-06T00:31:16;97758.22;;;-0.02;57.20
22580;BME280;11456;47.030;15.396;2023-04-06T00:33:43;97749.00;;;-0.11;58.31
22580;BME280;11456;47.030;15.396;2023-04-06T00:36:09;97750.22;;;-0.01;57.63
22580;BME280;11456;47.030;15.396;2023-04-06T00:38:36;97752.16;;;-0.04;56.92
22580;BME280;11456;47.030;15.396;2023-04-06T00:41:03;97762.31;;;-0.28;57.92
22580;BME280;11456;47.030;15.396;2023-04-06T00:43:30;97754.81;;;-0.20;57.28
22580;BME280;11456;47.030;15.396;2023-04-06T00:45:57;97754.13;;;0.08;57.38
22580;BME280;11456;47.030;15.396;2023-04-06T00:48:24;97757.53;;;-0.06;57.05
22580;BME280;11456;47.030;15.396;2023-04-06T00:50:50;97748.50;;;-0.02;57.06
22580;BME280;11456;47.030;15.396;2023-04-06T00:53:17;97745.84;;;-0.02;56.81
22580;BME280;11456;47.030;15.396;2023-04-06T00:55:44;97750.69;;;-0.10;57.08
22580;BME280;11456;47.030;15.396;2023-04-06T00:58:10;97745.25;;;-0.07;57.37
22580;BME280;11456;47.030;15.396;2023-04-06T01:00:47;97745.06;;;-0.19;57.00
22580;BME280;11456;47.030;15.396;2023-04-06T01:03:17;97748.34;;;-0.47;58.42
22580;BME280;11456;47.030;15.396;2023-04-06T01:05:43;97748.69;;;-0.53;58.79
22580;BME280;11456;47.030;15.396;2023-04-06T01:08:19;97747.75;;;-0.52;58.65
22580;BME280;11456;47.030;15.396;2023-04-06T01:10:48;97746.38;;;-0.44;59.01
22580;BME280;11456;47.030;15.396;2023-04-06T01:13:23;97749.44;;;-0.51;59.18
22580;BME280;11456;47.030;15.396;2023-04-06T01:15:56;97746.91;;;-0.53;59.68
22580;BME280;11456;47.030;15.396;2023-04-06T01:18:44;97747.75;;;-0.52;59.29
22580;BME280;11456;47.030;15.396;2023-04-06T01:21:16;97748.94;;;-0.58;59.09
22580;BME280;11456;47.030;15.396;2023-04-06T01:24:14;97741.44;;;-1.00;60.85
22580;BME280;11456;47.030;15.396;2023-04-06T01:26:57;97747.22;;;-1.09;62.26
22580;BME280;11456;47.030;15.396;2023-04-06T01:29:29;97748.00;;;-0.90;62.20
22580;BME280;11456;47.030;15.396;2023-04-06T01:31:57;97741.00;;;-0.91;62.21
22580;BME280;11456;47.030;15.396;2023-04-06T01:34:23;97738.31;;;-0.73;61.04
22580;BME280;11456;47.030;15.396;2023-04-06T01:36:52;97735.78;;;-0.59;60.40
22580;BME280;11456;47.030;15.396;2023-04-06T01:39:24;97726.59;;;-0.52;59.86
22580;BME280;11456;47.030;15.396;2023-04-06T01:41:50;97735.47;;;-0.53;59.30
22580;BME280;11456;47.030;15.396;2023-04-06T01:44:20;97730.66;;;-0.62;60.47
22580;BME280;11456;47.030;15.396;2023-04-06T01:46:52;97738.13;;;-0.70;60.97
22580;BME280;11456;47.030;15.396;2023-04-06T01:49:20;97730.84;;;-0.65;60.90
22580;BME280;11456;47.030;15.396;2023-04-06T01:51:51;97730.44;;;-0.58;60.34
22580;BME280;11456;47.030;15.396;2023-04-06T01:54:19;97733.75;;;-0.54;60.02
22580;BME280;11456;47.030;15.396;2023-04-06T01:57:04;97733.28;;;-0.62;59.80
22580;BME280;11456;47.030;15.396;2023-04-06T01:59:41;97734.56;;;-0.69;60.15
22580;BME280;11456;47.030;15.396;2023-04-06T02:02:22;97742.00;;;-0.93;61.34
22580;BME280;11456;47.030;15.396;2023-04-06T02:04:55;97742.09;;;-1.12;62.18
22580;BME280;11456;47.030;15.396;2023-04-06T02:07:22;97739.91;;;-1.38;63.52
22580;BME280;11456;47.030;15.396;2023-04-06T02:09:50;97739.28;;;-1.26;63.24
22580;BME280;11456;47.030;15.396;2023-04-06T02:12:24;97739.38;;;-1.10;62.30
22580;BME280;11456;47.030;15.396;2023-04-06T02:14:51;97738.13;;;-1.21;63.11
22580;BME280;11456;47.030;15.396;2023-04-06T02:17:18;97737.03;;;-1.34;63.62
22580;BME280;11456;47.030;15.396;2023-04-06T02:19:45;97735.25;;;-1.16;63.23
22580;BME280;11456;47.030;15.396;2023-04-06T02:22:11;97732.59;;;-1.33;62.75
22580;BME280;11456;47.030;15.396;2023-04-06T02:24:38;97733.22;;;-1.45;64.53
22580;BME280;11456;47.030;15.396;2023-04-06T02:27:04;97732.72;;;-1.35;63.90
22580;BME280;11456;47.030;15.396;2023-04-06T02:29:32;97730.53;;;-1.09;62.47
22580;BME280;11456;47.030;15.396;2023-04-06T02:31:59;97731.06;;;-1.03;62.50
22580;BME280;11456;47.030;15.396;2023-04-06T02:34:30;97732.91;;;-1.05;62.15
22580;BME280;11456;47.030;15.396;2023-04-06T02:36:56;97727.44;;;-1.02;61.01
22580;BME280;11456;47.030;15.396;2023-04-06T02:39:23;97737.41;;;-0.90;61.35
22580;BME280;11456;47.030;15.396;2023-04-06T02:41:50;97725.06;;;-1.06;60.94
22580;BME280;11456;47.030;15.396;2023-04-06T02:44:21;97718.22;;;-1.10;61.03
22580;BME280;11456;47.030;15.396;2023-04-06T02:46:47;97722.63;;;-0.94;61.89
22580;BME280;11456;47.030;15.396;2023-04-06T02:49:14;97720.78;;;-0.92;60.23
22580;BME280;11456;47.030;15.396;2023-04-06T02:51:41;97720.63;;;-1.06;60.88
22580;BME280;11456;47.030;15.396;2023-04-06T02:54:21;97712.88;;;-1.26;61.68
22580;BME280;11456;47.030;15.396;2023-04-06T02:56:48;97720.50;;;-1.37;62.38
22580;BME280;11456;47.030;15.396;2023-04-06T02:59:16;97712.41;;;-1.17;61.60
22580;BME280;11456;47.030;15.396;2023-04-06T03:01:52;97708.59;;;-1.11;61.28
22580;BME280;11456;47.030;15.396;2023-04-06T03:04:19;97715.19;;;-1.03;61.09
22580;BME280;11456;47.030;15.396;2023-04-06T03:06:46;97706.88;;;-1.12;61.17
22580;BME280;11456;47.030;15.396;2023-04-06T03:09:25;97708.97;;;-1.19;62.04
22580;BME280;11456;47.030;15.396;2023-04-06T03:11:51;97712.25;;;-1.14;61.57
22580;BME280;11456;47.030;15.396;2023-04-06T03:14:18;97705.88;;;-1.27;61.61
22580;BME280;11456;47.030;15.396;2023-04-06T03:16:48;97716.94;;;-1.36;62.78
22580;BME280;11456;47.030;15.396;2023-04-06T03:19:19;97716.13;;;-1.38;62.55
22580;BME280;11456;47.030;15.396;2023-04-06T03:21:45;97716.38;;;-1.43;63.30
22580;BME280;11456;47.030;15.396;2023-04-06T03:24:15;97708.69;;;-1.47;62.86
22580;BME280;11456;47.030;15.396;2023-04-06T03:26:42;97714.44;;;-1.56;63.77
22580;BME280;11456;47.030;15.396;2023-04-06T03:29:08;97718.78;;;-1.38;63.31
22580;BME280;11456;47.030;15.396;2023-04-06T03:31:35;97716.63;;;-1.47;62.74
22580;BME280;11456;47.030;15.396;2023-04-06T03:34:06;97718.16;;;-1.60;63.99
22580;BME280;11456;47.030;15.396;2023-04-06T03:36:35;97716.28;;;-1.58;64.03
22580;BME280;11456;47.030;15.396;2023-04-06T03:39:03;97712.56;;;-1.54;64.13
22580;BME280;11456;47.030;15.396;2023-04-06T03:41:33;97717.38;;;-1.45;64.08
22580;BME280;11456;47.030;15.396;2023-04-06T03:44:10;97727.00;;;-1.62;64.85
22580;BME280;11456;47.030;15.396;2023-04-06T03:46:36;97730.88;;;-1.69;65.59
22580;BME280;11456;47.030;15.396;2023-04-06T03:49:03;97718.09;;;-1.42;64.81
22580;BME280;11456;47.030;15.396;2023-04-06T03:51:30;97726.53;;;-1.52;63.72
22580;BME280;11456;47.030;15.396;2023-04-06T03:53:57;97732.91;;;-1.74;65.35
22580;BME280;11456;47.030;15.396;2023-04-06T03:56:23;97730.66;;;-1.64;64.94
22580;BME280;11456;47.030;15.396;2023-04-06T03:58:50;97730.41;;;-1.59;65.05
22580;BME280;11456;47.030;15.396;2023-04-06T04:01:19;97736.47;;;-1.57;64.47
22580;BME280;11456;47.030;15.396;2023-04-06T04:03:46;97739.00;;;-1.54;64.40
22580;BME280;11456;47.030;15.396;2023-04-06T04:06:16;97736.91;;;-1.84;64.95
22580;BME280;11456;47.030;15.396;2023-04-06T04:08:43;97736.16;;;-1.69;64.93
22580;BME280;11456;47.030;15.396;2023-04-06T04:11:10;97738.56;;;-1.64;64.82
22580;BME280;11456;47.030;15.396;2023-04-06T04:13:36;97742.66;;;-1.76;65.02
22580;BME280;11456;47.030;15.396;2023-04-06T04:16:05;97732.13;;;-1.76;65.38
22580;BME280;11456;47.030;15.396;2023-04-06T04:18:31;97741.75;;;-1.75;64.81
22580;BME280;11456;47.030;15.396;2023-04-06T04:20:58;97735.91;;;-1.81;64.94
22580;BME280;11456;47.030;15.396;2023-04-06T04:23:25;97741.44;;;-1.69;64.68
22580;BME280;11456;47.030;15.396;2023-04-06T04:25:51;97742.03;;;-1.81;65.49
22580;BME280;11456;47.030;15.396;2023-04-06T04:28:18;97738.63;;;-1.83;65.58
22580;BME280;11456;47.030;15.396;2023-04-06T04:30:48;97743.75;;;-1.80;65.14
22580;BME280;11456;47.030;15.396;2023-04-06T04:33:14;97756.97;;;-1.80;65.26
22580;BME280;11456;47.030;15.396;2023-04-06T04:35:42;97760.06;;;-1.72;64.75
22580;BME280;11456;47.030;15.396;2023-04-06T04:38:12;97758.22;;;-1.70;64.56
22580;BME280;11456;47.030;15.396;2023-04-06T04:40:41;97760.63;;;-2.01;65.59
22580;BME280;11456;47.030;15.396;2023-04-06T04:43:10;97758.53;;;-1.94;65.89
22580;BME280;11456;47.030;15.396;2023-04-06T04:45:38;97763.72;;;-1.74;65.58
22580;BME280;11456;47.030;15.396;2023-04-06T04:48:16;97758.38;;;-1.91;65.78
22580;BME280;11456;47.030;15.396;2023-04-06T04:50:54;97757.25;;;-1.86;65.89
22580;BME280;11456;47.030;15.396;2023-04-06T04:53:24;97757.53;;;-1.92;66.33
22580;BME280;11456;47.030;15.396;2023-04-06T04:55:57;97764.16;;;-1.83;66.03
22580;BME280;11456;47.030;15.396;2023-04-06T04:58:25;97763.81;;;-1.58;65.34
22580;BME280;11456;47.030;15.396;2023-04-06T05:00:55;97756.69;;;-1.56;64.17
22580;BME280;11456;47.030;15.396;2023-04-06T05:03:23;97752.81;;;-1.49;64.65
22580;BME280;11456;47.030;15.396;2023-04-06T05:05:57;97756.97;;;-1.63;65.04
22580;BME280;11456;47.030;15.396;2023-04-06T05:08:27;97748.47;;;-1.33;63.92
22580;BME280;11456;47.030;15.396;2023-04-06T05:10:54;97745.84;;;-1.16;63.87
22580;BME280;11456;47.030;15.396;2023-04-06T05:13:21;97746.09;;;-0.88;63.70
22580;BME280;11456;47.030;15.396;2023-04-06T05:15:49;97748.22;;;-0.77;62.33
22580;BME280;11456;47.030;15.396;2023-04-06T05:18:25;97744.13;;;-0.67;62.07
22580;BME280;11456;47.030;15.396;2023-04-06T05:20:52;97746.19;;;-0.56;61.60
22580;BME280;11456;47.030;15.396;2023-04-06T05:23:25;97743.00;;;-0.46;61.20
22580;BME280;11456;47.030;15.396;2023-04-06T05:25:52;97759.13;;;-0.34;61.60
22580;BME280;11456;47.030;15.396;2023-04-06T05:28:21;97747.53;;;-0.16;61.06
22580;BME280;11456;47.030;15.396;2023-04-06T05:30:48;97745.56;;;-0.13;60.93
22580;BME280;11456;47.030;15.396;2023-04-06T05:33:15;97741.72;;;0.09;60.79
22580;BME280;11456;47.030;15.396;2023-04-06T05:36:01;97749.50;;;0.43;60.09
22580;BME280;11456;47.030;15.396;2023-04-06T05:38:28;97741.97;;;0.51;60.43
22580;BME280;11456;47.030;15.396;2023-04-06T05:40:58;97740.16;;;0.82;59.59
22580;BME280;11456;47.030;15.396;2023-04-06T05:43:29;97742.13;;;1.22;58.34
22580;BME280;11456;47.030;15.396;2023-04-06T05:45:58;97736.47;;;1.42;57.30
22580;BME280;11456;47.030;15.396;2023-04-06T05:48:25;97743.66;;;1.69;56.04
22580;BME280;11456;47.030;15.396;2023-04-06T05:50:52;97735.94;;;1.92;54.98
22580;BME280;11456;47.030;15.396;2023-04-06T05:53:25;97743.81;;;2.08;54.58
22580;BME280;11456;47.030;15.396;2023-04-06T05:55:56;97738.25;;;2.25;54.35
22580;BME280;11456;47.030;15.396;2023-04-06T05:58:24;97736.63;;;1.96;54.45
22580;BME280;11456;47.030;15.396;2023-04-06T06:00:57;97742.19;;;2.47;54.01
22580;BME280;11456;47.030;15.396;2023-04-06T06:03:25;97729.47;;;2.91;52.20
22580;BME280;11456;47.030;15.396;2023-04-06T06:05:59;97733.13;;;2.76;52.48
22580;BME280;11456;47.030;15.396;2023-04-06T06:08:29;97728.72;;;3.02;51.38
22580;BME280;11456;47.030;15.396;2023-04-06T06:10:59;97731.53;;;3.51;50.97
22580;BME280;11456;47.030;15.396;2023-04-06T06:13:26;97730.69;;;3.50;50.70
22580;BME280;11456;47.030;15.396;2023-04-06T06:15:54;97730.88;;;3.35;49.85
22580;BME280;11456;47.030;15.396;2023-04-06T06:18:22;97732.88;;;3.94;49.74
22580;BME280;11456;47.030;15.396;2023-04-06T06:20:51;97732.13;;;3.92;47.92
22580;BME280;11456;47.030;15.396;2023-04-06T06:23:18;97726.38;;;4.59;47.35
22580;BME280;11456;47.030;15.396;2023-04-06T06:25:45;97728.03;;;4.72;47.71
22580;BME280;11456;47.030;15.396;2023-04-06T06:28:13;97731.72;;;4.94;46.30
22580;BME280;11456;47.030;15.396;2023-04-06T06:30:39;97732.81;;;4.67;47.21
22580;BME280;11456;47.030;15.396;2023-04-06T06:33:06;97734.47;;;4.81;47.00
22580;BME280;11456;47.030;15.396;2023-04-06T06:35:33;97726.22;;;5.19;47.46
22580;BME280;11456;47.030;15.396;2023-04-06T06:38:02;97731.66;;;5.63;45.96
22580;BME280;11456;47.030;15.396;2023-04-06T06:40:30;97731.69;;;5.75;45.49
22580;BME280;11456;47.030;15.396;2023-04-06T06:42:57;97731.19;;;6.36;45.66
22580;BME280;11456;47.030;15.396;2023-04-06T06:45:29;97717.94;;;6.35;44.93
22580;BME280;11456;47.030;15.396;2023-04-06T06:47:56;97720.25;;;5.84;44.06
22580;BME280;11456;47.030;15.396;2023-04-06T06:50:23;97722.88;;;6.51;43.97
22580;BME280;11456;47.030;15.396;2023-04-06T06:52:49;97724.25;;;6.45;42.90
22580;BME280;11456;47.030;15.396;2023-04-06T06:55:18;97723.13;;;6.48;41.88
22580;BME280;11456;47.030;15.396;2023-04-06T06:57:45;97722.97;;;6.92;41.71
22580;BME280;11456;47.030;15.396;2023-04-06T07:00:13;97716.00;;;7.01;43.30
22580;BME280;11456;47.030;15.396;2023-04-06T07:02:42;97717.09;;;7.09;43.49
22580;BME280;11456;47.030;15.396;2023-04-06T07:05:08;97710.19;;;7.79;40.01
22580;BME280;11456;47.030;15.396;2023-04-06T07:07:53;97714.41;;;7.81;39.11
22580;BME280;11456;47.030;15.396;2023-04-06T07:10:19;97716.38;;;7.49;39.94
22580;BME280;11456;47.030;15.396;2023-04-06T07:12:46;97711.47;;;7.33;40.11
22580;BME280;11456;47.030;15.396;2023-04-06T07:15:13;97710.84;;;7.71;39.41
22580;BME280;11456;47.030;15.396;2023-04-06T07:17:39;97716.22;;;8.32;39.15
22580;BME280;11456;47.030;15.396;2023-04-06T07:20:12;97715.94;;;8.35;39.94
22580;BME280;11456;47.030;15.396;2023-04-06T07:22:39;97716.09;;;8.43;40.09
22580;BME280;11456;47.030;15.396;2023-04-06T07:25:06;97714.06;;;8.95;39.49
22580;BME280;11456;47.030;15.396;2023-04-06T07:27:33;97705.22;;;7.74;40.70
22580;BME280;11456;47.030;15.396;2023-04-06T07:30:00;97714.03;;;7.35;41.71
22580;BME280;11456;47.030;15.396;2023-04-06T07:32:27;97706.91;;;8.36;41.37
22580;BME280;11456;47.030;15.396;2023-04-06T07:34:54;97709.94;;;8.81;39.59
22580;BME280;11456;47.030;15.396;2023-04-06T07:37:21;97714.34;;;9.20;38.98
22580;BME280;11456;47.030;15.396;2023-04-06T07:39:48;97710.06;;;9.37;39.11
22580;BME280;11456;47.030;15.396;2023-04-06T07:42:17;97711.28;;;9.72;38.13
22580;BME280;11456;47.030;15.396;2023-04-06T07:44:44;97702.47;;;9.13;37.91
22580;BME280;11456;47.030;15.396;2023-04-06T07:47:11;97706.38;;;9.94;36.79
22580;BME280;11456;47.030;15.396;2023-04-06T07:49:37;97710.97;;;8.90;36.84
22580;BME280;11456;47.030;15.396;2023-04-06T07:52:05;97700.03;;;9.86;34.68
22580;BME280;11456;47.030;15.396;2023-04-06T07:54:32;97699.03;;;9.40;35.32
22580;BME280;11456;47.030;15.396;2023-04-06T07:56:59;97696.09;;;9.14;35.50
22580;BME280;11456;47.030;15.396;2023-04-06T07:59:25;97702.28;;;9.53;34.86
22580;BME280;11456;47.030;15.396;2023-04-06T08:01:52;97688.00;;;10.54;33.76
22580;BME280;11456;47.030;15.396;2023-04-06T08:04:19;97686.63;;;10.13;34.19
22580;BME280;11456;47.030;15.396;2023-04-06T08:06:46;97685.41;;;10.80;33.01
22580;BME280;11456;47.030;15.396;2023-04-06T08:09:13;97674.88;;;11.04;32.40
22580;BME280;11456;47.030;15.396;2023-04-06T08:11:39;97674.94;;;11.12;32.98
22580;BME280;11456;47.030;15.396;2023-04-06T08:14:06;97666.03;;;10.94;32.16
22580;BME280;11456;47.030;15.396;2023-04-06T08:16:33;97672.78;;;10.98;31.63
22580;BME280;11456;47.030;15.396;2023-04-06T08:19:00;97661.31;;;10.96;31.02
22580;BME280;11456;47.030;15.396;2023-04-06T08:21:26;97661.69;;;11.88;29.81
22580;BME280;11456;47.030;15.396;2023-04-06T08:23:53;97659.59;;;11.74;30.05
22580;BME280;11456;47.030;15.396;2023-04-06T08:26:19;97655.47;;;11.18;29.96
22580;BME280;11456;47.030;15.396;2023-04-06T08:28:49;97656.84;;;11.48;29.47
22580;BME280;11456;47.030;15.396;2023-04-06T08:31:16;97660.16;;;11.86;30.25
22580;BME280;11456;47.030;15.396;2023-04-06T08:33:43;97657.53;;;10.89;31.44
22580;BME280;11456;47.030;15.396;2023-04-06T08:36:10;97649.19;;;10.29;30.93
22580;BME280;11456;47.030;15.396;2023-04-06T08:38:36;97640.50;;;10.35;32.53
22580;BME280;11456;47.030;15.396;2023-04-06T08:41:09;97638.78;;;10.62;29.79
22580;BME280;11456;47.030;15.396;2023-04-06T08:43:58;97635.78;;;12.03;29.73
22580;BME280;11456;47.030;15.396;2023-04-06T08:46:23;97634.34;;;13.08;29.87
22580;BME280;11456;47.030;15.396;2023-04-06T08:48:57;97629.16;;;13.14;28.85
22580;BME280;11456;47.030;15.396;2023-04-06T08:51:24;97628.13;;;14.11;26.91
22580;BME280;11456;47.030;15.396;2023-04-06T08:53:54;97619.19;;;15.03;26.18
22580;BME280;11456;47.030;15.396;2023-04-06T08:56:22;97621.53;;;13.42;26.56
22580;BME280;11456;47.030;15.396;2023-04-06T08:58:49;97614.59;;;14.03;27.51
22580;BME280;11456;47.030;15.396;2023-04-06T09:01:17;97614.44;;;12.93;26.95
22580;BME280;11456;47.030;15.396;2023-04-06T09:03:44;97601.53;;;14.54;26.67
22580;BME280;11456;47.030;15.396;2023-04-06T09:06:12;97591.47;;;15.31;26.31
22580;BME280;11456;47.030;15.396;2023-04-06T09:08:40;97604.41;;;15.95;24.91
22580;BME280;11456;47.030;15.396;2023-04-06T09:11:07;97602.25;;;15.76;25.06
22580;BME280;11456;47.030;15.396;2023-04-06T09:13:53;97594.28;;;15.60;25.04
22580;BME280;11456;47.030;15.396;2023-04-06T09:16:20;97587.53;;;15.33;24.62
22580;BME280;11456;47.030;15.396;2023-04-06T09:18:47;97578.41;;;16.37;23.89
22580;BME280;11456;47.030;15.396;2023-04-06T09:21:16;97581.66;;;15.96;23.93
22580;BME280;11456;47.030;15.396;2023-04-06T09:23:43;97583.41;;;15.60;23.26
22580;BME280;11456;47.030;15.396;2023-04-06T09:26:10;97579.88;;;16.54;23.95
22580;BME280;11456;47.030;15.396;2023-04-06T09:28:47;97581.13;;;17.09;23.01
22580;BME280;11456;47.030;15.396;2023-04-06T09:31:24;97571.75;;;16.39;22.82
22580;BME280;11456;47.030;15.396;2023-04-06T09:33:51;97569.69;;;16.99;22.73
22580;BME280;11456;47.030;15.396;2023-04-06T09:36:18;97574.28;;;17.19;21.87
22580;BME280;11456;47.030;15.396;2023-04-06T09:38:55;97559.47;;;16.79;21.81
22580;BME280;11456;47.030;15.396;2023-04-06T09:41:22;97548.91;;;14.71;24.38
22580;BME280;11456;47.030;15.396;2023-04-06T09:43:52;97550.47;;;15.92;24.11
22580;BME280;11456;47.030;15.396;2023-04-06T09:46:27;97551.34;;;16.29;23.33
22580;BME280;11456;47.030;15.396;2023-04-06T09:49:04;97544.13;;;16.21;25.33
22580;BME280;11456;47.030;15.396;2023-04-06T09:51:41;97543.78;;;17.03;22.86
22580;BME280;11456;47.030;15.396;2023-04-06T09:54:08;97541.81;;;17.67;23.03
22580;BME280;11456;47.030;15.396;2023-04-06T09:56:45;97535.78;;;16.95;24.09
22580;BME280;11456;47.030;15.396;2023-04-06T10:01:58;97536.94;;;17.90;21.08
22580;BME280;11456;47.030;15.396;2023-04-06T10:06:52;97532.69;;;16.76;21.03
22580;BME280;11456;47.030;15.396;2023-04-06T10:09:20;97530.09;;;17.17;21.33
22580;BME280;11456;47.030;15.396;2023-04-06T10:11:49;97511.69;;;17.75;21.02
22580;BME280;11456;47.030;15.396;2023-04-06T10:14:16;97528.56;;;17.36;22.21
22580;BME280;11456;47.030;15.396;2023-04-06T10:16:43;97510.84;;;17.75;21.62
22580;BME280;11456;47.030;15.396;2023-04-06T10:19:12;97506.25;;;18.16;20.58
22580;BME280;11456;47.030;15.396;2023-04-06T10:21:40;97499.72;;;18.85;20.32
22580;BME280;11456;47.030;15.396;2023-04-06T10:24:12;97497.78;;;18.59;20.27
22580;BME280;11456;47.030;15.396;2023-04-06T10:26:39;97492.81;;;19.15;19.84
22580;BME280;11456;47.030;15.396;2023-04-06T10:29:06;97493.22;;;19.05;19.75
22580;BME280;11456;47.030;15.396;2023-04-06T10:31:32;97496.78;;;18.86;20.75
22580;BME280;11456;47.030;15.396;2023-04-06T10:34:00;97502.25;;;17.43;20.79
22580;BME280;11456;47.030;15.396;2023-04-06T10:36:36;97491.84;;;18.35;21.44
22580;BME280;11456;47.030;15.396;2023-04-06T10:39:04;97502.13;;;16.02;23.38
22580;BME280;11456;47.030;15.396;2023-04-06T10:41:34;97500.91;;;17.33;21.43
22580;BME280;11456;47.030;15.396;2023-04-06T10:44:01;97501.97;;;18.55;22.04
22580;BME280;11456;47.030;15.396;2023-04-06T10:46:29;97481.44;;;19.64;18.49
22580;BME280;11456;47.030;15.396;2023-04-06T10:48:56;97481.31;;;17.72;20.71
22580;BME280;11456;47.030;15.396;2023-04-06T10:51:24;97474.69;;;18.55;19.15
22580;BME280;11456;47.030;15.396;2023-04-06T10:53:53;97486.44;;;19.74;18.09
22580;BME280;11456;47.030;15.396;2023-04-06T10:56:24;97483.16;;;19.39;20.54
22580;BME280;11456;47.030;15.396;2023-04-06T10:58:52;97478.34;;;20.12;18.68
22580;BME280;11456;47.030;15.396;2023-04-06T11:01:20;97469.38;;;17.73;20.64
22580;BME280;11456;47.030;15.396;2023-04-06T11:03:48;97472.84;;;18.01;21.20
22580;BME280;11456;47.030;15.396;2023-04-06T11:06:22;97465.47;;;19.54;19.27
22580;BME280;11456;47.030;15.396;2023-04-06T11:08:49;97467.03;;;17.42;22.68
22580;BME280;11456;47.030;15.396;2023-04-06T11:11:17;97457.97;;;17.62;18.89
22580;BME280;11456;47.030;15.396;2023-04-06T11:13:46;97452.66;;;18.50;22.42
22580;BME280;11456;47.030;15.396;2023-04-06T11:16:14;97459.81;;;19.56;18.09
22580;BME280;11456;47.030;15.396;2023-04-06T11:18:54;97460.91;;;20.06;19.41
22580;BME280;11456;47.030;15.396;2023-04-06T11:24:07;97443.63;;;20.12;17.70
22580;BME280;11456;47.030;15.396;2023-04-06T11:26:46;97446.63;;;16.69;19.54
22580;BME280;11456;47.030;15.396;2023-04-06T11:29:15;97440.09;;;17.19;21.39
22580;BME280;11456;47.030;15.396;2023-04-06T11:31:44;97438.16;;;17.41;20.14
22580;BME280;11456;47.030;15.396;2023-04-06T11:34:12;97437.53;;;18.54;20.16
22580;BME280;11456;47.030;15.396;2023-04-06T11:36:39;97433.38;;;19.04;20.50
22580;BME280;11456;47.030;15.396;2023-04-06T11:39:07;97431.47;;;17.43;21.38
22580;BME280;11456;47.030;15.396;2023-04-06T11:41:34;97426.34;;;19.67;18.81
22580;BME280;11456;47.030;15.396;2023-04-06T11:44:01;97425.97;;;20.15;18.49
22580;BME280;11456;47.030;15.396;2023-04-06T11:46:29;97416.34;;;18.42;20.01
22580;BME280;11456;47.030;15.396;2023-04-06T11:48:59;97414.28;;;19.94;18.89
22580;BME280;11456;47.030;15.396;2023-04-06T11:51:27;97422.66;;;20.44;19.09
22580;BME280;11456;47.030;15.396;2023-04-06T11:53:54;97415.09;;;18.52;17.74
22580;BME280;11456;47.030;15.396;2023-04-06T11:58:51;97394.56;;;20.55;18.11
22580;BME280;11456;47.030;15.396;2023-04-06T12:01:18;97409.16;;;20.05;19.15
22580;BME280;11456;47.030;15.396;2023-04-06T12:03:45;97411.50;;;20.01;20.07
22580;BME280;11456;47.030;15.396;2023-04-06T12:06:12;97404.63;;;17.06;21.37
22580;BME280;11456;47.030;15.396;2023-04-06T12:08:38;97403.28;;;19.56;20.12
22580;BME280;11456;47.030;15.396;2023-04-06T12:11:06;97396.78;;;20.71;18.72
22580;BME280;11456;47.030;15.396;2023-04-06T12:13:33;97395.91;;;20.77;18.70
22580;BME280;11456;47.030;15.396;2023-04-06T12:15:59;97386.84;;;20.52;17.14
22580;BME280;11456;47.030;15.396;2023-04-06T12:18:26;97373.81;;;20.97;18.69
22580;BME280;11456;47.030;15.396;2023-04-06T12:20:52;97378.63;;;20.14;18.00
22580;BME280;11456;47.030;15.396;2023-04-06T12:23:19;97379.22;;;19.78;18.90
22580;BME280;11456;47.030;15.396;2023-04-06T12:25:46;97390.84;;;20.12;19.25
22580;BME280;11456;47.030;15.396;2023-04-06T12:28:12;97393.16;;;19.70;18.94
22580;BME280;11456;47.030;15.396;2023-04-06T12:30:39;97383.84;;;19.84;19.23
22580;BME280;11456;47.030;15.396;2023-04-06T12:33:07;97372.63;;;20.30;19.01
22580;BME280;11456;47.030;15.396;2023-04-06T12:35:34;97368.75;;;20.76;17.32
22580;BME280;11456;47.030;15.396;2023-04-06T12:38:01;97370.25;;;20.97;17.59
22580;BME280;11456;47.030;15.396;2023-04-06T12:40:28;97378.34;;;21.10;17.20
22580;BME280;11456;47.030;15.396;2023-04-06T12:42:54;97373.06;;;21.33;16.48
22580;BME280;11456;47.030;15.396;2023-04-06T12:45:21;97363.78;;;21.89;16.62
22580;BME280;11456;47.030;15.396;2023-04-06T12:47:48;97359.81;;;21.85;17.50
22580;BME280;11456;47.030;15.396;2023-04-06T12:50:14;97360.84;;;20.30;17.43
22580;BME280;11456;47.030;15.396;2023-04-06T12:52:41;97361.13;;;21.03;16.75
22580;BME280;11456;47.030;15.396;2023-04-06T12:55:07;97346.03;;;20.94;17.68
22580;BME280;11456;47.030;15.396;2023-04-06T12:57:34;97352.78;;;20.48;16.40
22580;BME280;11456;47.030;15.396;2023-04-06T13:00:01;97349.81;;;20.74;16.83
22580;BME280;11456;47.030;15.396;2023-04-06T13:02:28;97349.81;;;20.12;18.71
22580;BME280;11456;47.030;15.396;2023-04-06T13:04:54;97358.34;;;20.35;18.52
22580;BME280;11456;47.030;15.396;2023-04-06T13:07:21;97353.44;;;20.06;18.14
22580;BME280;11456;47.030;15.396;2023-04-06T13:09:48;97348.81;;;20.06;16.75
22580;BME280;11456;47.030;15.396;2023-04-06T13:12:15;97348.44;;;20.02;16.92